Time;durP1;ratioP1;P1;durP2;ratioP2;P2;SDS_P1;SDS_P2;PMS_P1;PMS_P2;Temp;Humidity;BMP_temperature;BMP_pressure;BME280_temperature;BME280_humidity;BME280_pressure;Samples;Min_cycle;Max_cycle;Signal;HPM_P1;HPM_P2
2021/12/29 00:00:12;;;;;;;;;;;;;;;-0.75;100.00;99505.56;5598880;31;33375;-82
2021/12/29 00:03:15;;;;;;;;;;;;;;;-0.62;100.00;99505.66;5598037;31;33629;-82
2021/12/29 00:06:18;;;;;;;;;;;;;;;-0.66;100.00;99499.81;5598956;31;34396;-83
2021/12/29 00:09:21;;;;;;;;;;;;;;;-0.61;100.00;99496.94;5600397;31;33540;-82
2021/12/29 00:12:27;;;;;;;;;;;;;;;-0.55;100.00;99508.75;5599839;31;34186;-82
2021/12/29 00:15:30;;;;;;;;;;;;;;;-0.55;100.00;99509.56;5598511;31;33430;-82
2021/12/29 00:18:33;;;;;;;;;;;;;;;-0.65;100.00;99514.47;5598845;31;34469;-81
2021/12/29 00:21:37;;;;;;;;;;;;;;;-0.66;100.00;99515.41;5598615;31;33777;-81
2021/12/29 00:24:40;;;;;;;;;;;;;;;-0.68;100.00;99517.25;5603304;31;33375;-81
2021/12/29 00:27:43;;;;;;;;;;;;;;;-0.63;100.00;99514.38;5603605;31;33751;-81
2021/12/29 00:30:45;;;;;;;;;;;;;;;-0.72;100.00;99505.34;5598798;31;33795;-81
2021/12/29 00:34:11;;;;;;;;;;;;;;;-0.68;100.00;99496.47;5599446;31;34193;-81
2021/12/29 00:37:23;;;;;;;;;;;;;;;-0.59;100.00;99494.25;5600210;31;32437;-81
2021/12/29 00:40:31;;;;;;;;;;;;;;;-0.51;100.00;99492.06;5600268;31;32571;-81
2021/12/29 00:43:36;;;;;;;;;;;;;;;-0.50;100.00;99488.50;5599658;31;33958;-81
2021/12/29 00:46:41;;;;;;;;;;;;;;;-0.54;100.00;99500.03;5599432;31;33323;-81
2021/12/29 00:49:46;;;;;;;;;;;;;;;-0.53;100.00;99496.50;5598727;31;34750;-81
2021/12/29 00:52:51;;;;;;;;;;;;;;;-0.63;100.00;99491.84;5597631;31;34528;-81
2021/12/29 00:55:57;;;;;;;;;;;;;;;-0.63;100.00;99486.66;5597829;31;33525;-81
2021/12/29 00:59:02;;;;;;;;;;;;;;;-0.68;100.00;99486.06;5599537;31;34113;-81
2021/12/29 01:02:04;;;;;;;;;;;;;;;-0.65;100.00;99480.72;5598429;31;33507;-81
2021/12/29 01:05:10;;;;;;;;;;;;;;;-0.63;100.00;99486.66;5599987;31;33986;-81
2021/12/29 01:08:12;;;;;;;;;;;;;;;-0.59;100.00;99489.06;5599132;31;34005;-81
2021/12/29 01:11:17;;;;;;;;;;;;;;;-0.61;100.00;99473.56;5599156;31;33597;-81
2021/12/29 01:14:22;;;;;;;;;;;;;;;-0.69;100.00;99478.38;5599325;31;33776;-81
2021/12/29 01:17:27;;;;;;;;;;;;;;;-0.75;100.00;99474.38;5598420;31;34006;-81
2021/12/29 01:20:30;;;;;;;;;;;;;;;-0.80;100.00;99461.66;5599309;31;33915;-81
2021/12/29 01:23:33;;;;;;;;;;;;;;;-0.79;100.00;99457.28;5597988;31;33159;-83
2021/12/29 01:26:36;;;;;;;;;;;;;;;-0.84;100.00;99454.09;5599295;31;33592;-82
2021/12/29 01:29:39;;;;;;;;;;;;;;;-0.84;100.00;99451.50;5598781;31;33784;-81
2021/12/29 01:32:42;;;;;;;;;;;;;;;-0.84;100.00;99462.75;5599006;31;33665;-81
2021/12/29 01:35:45;;;;;;;;;;;;;;;-0.73;100.00;99467.31;5598923;31;34652;-81
2021/12/29 01:38:47;;;;;;;;;;;;;;;-0.77;100.00;99455.44;5604527;31;33945;-81
2021/12/29 01:41:51;;;;;;;;;;;;;;;-0.75;100.00;99450.16;5599193;31;33814;-81
2021/12/29 01:44:54;;;;;;;;;;;;;;;-0.78;100.00;99448.56;5598378;31;33649;-81
2021/12/29 01:48:02;;;;;;;;;;;;;;;-0.75;100.00;99464.00;5596235;31;34573;-81
2021/12/29 01:51:05;;;;;;;;;;;;;;;-0.74;100.00;99457.88;5596631;31;33430;-81
2021/12/29 01:57:17;;;;;;;;;;;;;;;-0.72;100.00;99462.97;5597386;31;33565;-81
2021/12/29 02:00:23;;;;;;;;;;;;;;;-0.67;100.00;99477.34;5597462;31;34167;-81
2021/12/29 02:03:29;;;;;;;;;;;;;;;-0.69;100.00;99475.78;5598077;31;33825;-81
2021/12/29 02:06:33;;;;;;;;;;;;;;;-0.51;100.00;99479.88;5596779;31;33409;-81
2021/12/29 02:09:36;;;;;;;;;;;;;;;-0.60;100.00;99483.03;5596779;31;33887;-81
2021/12/29 02:12:38;;;;;;;;;;;;;;;-0.65;100.00;99491.09;5595646;31;33691;-81
2021/12/29 02:15:42;;;;;;;;;;;;;;;-0.71;100.00;99501.00;5595522;31;33135;-81
2021/12/29 02:18:54;;;;;;;;;;;;;;;-0.72;100.00;99497.56;5595355;31;33881;-81
2021/12/29 02:22:09;;;;;;;;;;;;;;;-0.61;100.00;99491.75;5595013;31;34200;-81
2021/12/29 02:28:38;;;;;;;;;;;;;;;-0.74;100.00;99491.63;5596789;31;33684;-82
2021/12/29 02:31:41;;;;;;;;;;;;;;;-0.72;100.00;99494.97;5596411;31;33815;-81
2021/12/29 02:34:44;;;;;;;;;;;;;;;-0.68;100.00;99486.06;5597222;31;33959;-81
2021/12/29 02:37:46;;;;;;;;;;;;;;;-0.67;100.00;99484.28;5597896;31;33807;-81
2021/12/29 02:40:53;;;;;;;;;;;;;;;-0.67;100.00;99503.34;5596463;31;33824;-81
2021/12/29 02:44:02;;;;;;;;;;;;;;;-0.70;100.00;99500.09;5595876;31;33244;-81
2021/12/29 02:47:04;;;;;;;;;;;;;;;-0.62;100.00;99490.91;5601189;31;33914;-81
2021/12/29 02:50:07;;;;;;;;;;;;;;;-0.59;100.00;99491.66;5599347;31;34777;-81
2021/12/29 02:53:12;;;;;;;;;;;;;;;-0.55;100.00;99483.59;5595728;31;33183;-81
2021/12/29 02:56:16;;;;;;;;;;;;;;;-0.73;100.00;99477.69;5597959;31;34157;-81
2021/12/29 02:59:20;;;;;;;;;;;;;;;-0.82;100.00;99488.63;5596083;31;34330;-81
2021/12/29 03:02:23;;;;;;;;;;;;;;;-0.73;100.00;99493.28;5606476;31;33938;-81
2021/12/29 03:05:30;;;;;;;;;;;;;;;-0.73;100.00;99493.28;5601367;31;34791;-81
2021/12/29 03:08:35;;;;;;;;;;;;;;;-0.72;100.00;99487.16;5597389;31;33209;-81
2021/12/29 03:11:40;;;;;;;;;;;;;;;-0.72;100.00;99489.75;5599763;31;33842;-81
2021/12/29 03:14:58;;;;;;;;;;;;;;;-0.78;100.00;99490.13;5599594;31;33787;-81
2021/12/29 03:18:00;;;;;;;;;;;;;;;-0.81;100.00;99490.31;5598016;31;33789;-81
2021/12/29 03:21:05;;;;;;;;;;;;;;;-0.80;100.00;99486.78;5597778;31;33612;-81
2021/12/29 03:24:08;;;;;;;;;;;;;;;-0.84;100.00;99485.28;5599091;31;33444;-81
2021/12/29 03:27:10;;;;;;;;;;;;;;;-0.85;100.00;99479.25;5599826;31;33771;-81
2021/12/29 03:30:13;;;;;;;;;;;;;;;-0.80;100.00;99476.41;5600320;31;33590;-81
2021/12/29 03:33:16;;;;;;;;;;;;;;;-0.66;100.00;99468.66;5599517;31;33742;-82
2021/12/29 03:36:19;;;;;;;;;;;;;;;-0.73;100.00;99466.50;5599129;31;33878;-81
2021/12/29 03:39:24;;;;;;;;;;;;;;;-0.82;100.00;99467.84;5597033;31;33342;-81
2021/12/29 03:42:26;;;;;;;;;;;;;;;-0.61;100.00;99465.78;5597524;31;34312;-81
2021/12/29 03:45:37;;;;;;;;;;;;;;;-0.65;100.00;99465.13;5597847;31;33542;-82
2021/12/29 03:48:42;;;;;;;;;;;;;;;-0.73;100.00;99469.91;5597204;31;33287;-81
2021/12/29 03:51:47;;;;;;;;;;;;;;;-0.69;100.00;99468.00;5598376;31;33953;-81
2021/12/29 03:54:50;;;;;;;;;;;;;;;-0.65;100.00;99465.13;5597775;31;33691;-81
2021/12/29 03:57:52;;;;;;;;;;;;;;;-0.73;100.00;99480.28;5603631;31;33169;-81
2021/12/29 04:00:57;;;;;;;;;;;;;;;-0.72;100.00;99489.75;5599036;31;34751;-81
2021/12/29 04:04:00;;;;;;;;;;;;;;;-0.80;100.00;99491.97;5597416;31;34192;-81
2021/12/29 04:07:05;;;;;;;;;;;;;;;-0.74;100.00;99501.19;5598998;31;32121;-81
2021/12/29 04:10:08;;;;;;;;;;;;;;;-0.69;100.00;99509.56;5598429;31;34513;-81
2021/12/29 04:13:11;;;;;;;;;;;;;;;-0.66;100.00;99505.00;5596134;31;34410;-82
2021/12/29 04:16:17;;;;;;;;;;;;;;;-0.58;100.00;99495.94;5597364;31;33286;-81
2021/12/29 04:19:29;;;;;;;;;;;;;;;-0.57;100.00;99492.41;5597675;31;34201;-81
2021/12/29 04:22:33;;;;;;;;;;;;;;;-0.69;100.00;99497.37;5598866;31;33528;-82
2021/12/29 04:25:39;;;;;;;;;;;;;;;-0.74;100.00;99496.84;5596935;31;33696;-82
2021/12/29 04:28:42;;;;;;;;;;;;;;;-0.73;100.00;99495.88;5598089;31;33017;-81
2021/12/29 04:31:44;;;;;;;;;;;;;;;-0.76;100.00;99503.03;5598445;31;33759;-81
2021/12/29 04:34:47;;;;;;;;;;;;;;;-0.73;100.00;99508.03;5596796;31;33518;-82
2021/12/29 04:37:50;;;;;;;;;;;;;;;-0.59;100.00;99517.62;5598295;31;33761;-81
2021/12/29 04:40:55;;;;;;;;;;;;;;;-0.54;100.00;99518.22;5597791;31;33819;-81
2021/12/29 04:44:00;;;;;;;;;;;;;;;-0.68;100.00;99517.25;5598347;31;34590;-81
2021/12/29 04:47:07;;;;;;;;;;;;;;;-0.66;100.00;99514.56;5597561;31;33504;-81
2021/12/29 04:50:23;;;;;;;;;;;;;;;-0.70;100.00;99508.69;5595912;31;34052;-81
2021/12/29 04:53:26;;;;;;;;;;;;;;;-0.73;100.00;99514.06;5596231;31;33928;-81
2021/12/29 04:56:28;;;;;;;;;;;;;;;-0.75;100.00;99521.13;5597982;31;33756;-81
2021/12/29 04:59:31;;;;;;;;;;;;;;;-0.74;100.00;99524.56;5597613;31;33682;-81
2021/12/29 05:02:34;;;;;;;;;;;;;;;-0.71;100.00;99527.81;5596546;31;33147;-81
2021/12/29 05:08:41;;;;;;;;;;;;;;;-0.74;100.00;99522.81;5599264;31;33183;-81
2021/12/29 05:11:46;;;;;;;;;;;;;;;-0.73;100.00;99521.03;5598091;31;34610;-82
2021/12/29 05:14:48;;;;;;;;;;;;;;;-0.72;100.00;99526.13;5596301;31;33929;-81
2021/12/29 05:17:51;;;;;;;;;;;;;;;-0.70;100.00;99519.09;5596339;31;33602;-82
2021/12/29 05:20:54;;;;;;;;;;;;;;;-0.73;100.00;99524.47;5597076;31;34246;-81
2021/12/29 05:23:57;;;;;;;;;;;;;;;-0.69;100.00;99520.78;5594834;31;34266;-81
2021/12/29 05:27:03;;;;;;;;;;;;;;;-0.73;100.00;99508.03;5596053;31;33823;-82
2021/12/29 05:30:06;;;;;;;;;;;;;;;-0.75;100.00;99515.94;5597391;31;33640;-81
2021/12/29 05:33:09;;;;;;;;;;;;;;;-0.72;100.00;99517.53;5595599;31;33866;-82
2021/12/29 05:36:12;;;;;;;;;;;;;;;-0.69;100.00;99523.38;5597015;31;33470;-81
2021/12/29 05:39:15;;;;;;;;;;;;;;;-0.75;100.00;99528.06;5596987;31;33953;-81
2021/12/29 05:42:18;;;;;;;;;;;;;;;-0.70;100.00;99528.66;5601494;31;33970;-81
2021/12/29 05:45:21;;;;;;;;;;;;;;;-0.72;100.00;99533.94;5595773;31;33756;-81
2021/12/29 05:48:34;;;;;;;;;;;;;;;-0.57;100.00;99544.37;5596877;31;33645;-81
2021/12/29 05:51:37;;;;;;;;;;;;;;;-0.70;100.00;99550.25;5595867;31;34456;-81
2021/12/29 05:54:39;;;;;;;;;;;;;;;-0.54;100.00;99541.59;5595295;31;33926;-81
2021/12/29 05:57:42;;;;;;;;;;;;;;;-0.62;100.00;99548.06;5596030;31;33779;-81
2021/12/29 06:00:47;;;;;;;;;;;;;;;-0.69;100.00;99551.13;5595948;31;35362;-81
2021/12/29 06:03:50;;;;;;;;;;;;;;;-0.51;100.00;99552.66;5595292;31;35831;-81
2021/12/29 06:06:52;;;;;;;;;;;;;;;-0.67;100.00;99547.50;5595745;31;33432;-81
2021/12/29 06:09:58;;;;;;;;;;;;;;;-0.64;100.00;99549.06;5596338;31;33616;-82
2021/12/29 06:13:00;;;;;;;;;;;;;;;-0.73;100.00;99547.00;5595588;31;33797;-80
2021/12/29 06:16:04;;;;;;;;;;;;;;;-0.71;100.00;99548.59;5596552;31;33935;-80
2021/12/29 06:19:06;;;;;;;;;;;;;;;-0.80;100.00;99544.78;5599202;31;34381;-80
2021/12/29 06:22:11;;;;;;;;;;;;;;;-0.77;100.00;99546.34;5597733;31;34613;-80
2021/12/29 06:25:17;;;;;;;;;;;;;;;-0.77;100.00;99548.94;5594992;31;33167;-80
2021/12/29 06:28:19;;;;;;;;;;;;;;;-0.75;100.00;99549.72;5594568;31;33631;-80
2021/12/29 06:31:25;;;;;;;;;;;;;;;-0.72;100.00;99559.91;5596301;31;33276;-81
2021/12/29 06:34:29;;;;;;;;;;;;;;;-0.63;100.00;99554.22;5597605;31;33812;-81
2021/12/29 06:37:32;;;;;;;;;;;;;;;-0.68;100.00;99561.41;5599765;31;34306;-82
2021/12/29 06:40:34;;;;;;;;;;;;;;;-0.54;100.00;99559.78;5598555;31;34934;-81
2021/12/29 06:43:37;;;;;;;;;;;;;;;-0.64;100.00;99555.12;5598513;31;35937;-81
2021/12/29 06:46:40;;;;;;;;;;;;;;;-0.63;100.00;99562.00;5598185;31;34336;-82
2021/12/29 06:49:43;;;;;;;;;;;;;;;-0.65;100.00;99558.66;5597138;31;33757;-82
2021/12/29 06:52:46;;;;;;;;;;;;;;;-0.64;100.00;99568.13;5596821;31;33854;-82
2021/12/29 06:55:48;;;;;;;;;;;;;;;-0.57;100.00;99565.16;5597232;31;33358;-81
2021/12/29 06:58:51;;;;;;;;;;;;;;;-0.54;100.00;99577.97;5598894;31;33471;-81
2021/12/29 07:01:54;;;;;;;;;;;;;;;-0.34;100.00;99569.88;5598411;31;33774;-82
2021/12/29 07:04:57;;;;;;;;;;;;;;;-0.25;100.00;99580.63;5598991;31;34466;-82
2021/12/29 07:07:59;;;;;;;;;;;;;;;-0.32;100.00;99574.97;5597764;31;33767;-82
2021/12/29 07:11:02;;;;;;;;;;;;;;;-0.28;100.00;99573.03;5597458;31;33973;-81
2021/12/29 07:14:05;;;;;;;;;;;;;;;-0.28;100.00;99580.84;5596308;31;33750;-82
2021/12/29 07:17:08;;;;;;;;;;;;;;;-0.23;100.00;99589.19;5598608;31;33464;-81
2021/12/29 07:20:11;;;;;;;;;;;;;;;-0.29;100.00;99592.16;5596561;31;33406;-81
2021/12/29 07:23:14;;;;;;;;;;;;;;;-0.26;100.00;99604.97;5598131;31;33709;-81
2021/12/29 07:26:17;;;;;;;;;;;;;;;-0.18;100.00;99613.19;5598305;31;33916;-84
2021/12/29 07:29:19;;;;;;;;;;;;;;;-0.18;100.00;99613.19;5600632;31;33492;-81
2021/12/29 07:32:22;;;;;;;;;;;;;;;-0.22;100.00;99611.66;5602048;31;34257;-81
2021/12/29 07:35:28;;;;;;;;;;;;;;;-0.27;100.00;99613.69;5598416;31;33637;-81
2021/12/29 07:38:30;;;;;;;;;;;;;;;-0.27;100.00;99618.88;5597226;31;33693;-80
2021/12/29 07:41:42;;;;;;;;;;;;;;;-0.27;100.00;99613.69;5600146;31;33436;-81
2021/12/29 07:44:51;;;;;;;;;;;;;;;-0.25;100.00;99611.84;5595541;31;33179;-81
2021/12/29 07:47:54;;;;;;;;;;;;;;;-0.19;100.00;99624.50;5596125;31;33968;-81
2021/12/29 07:50:57;;;;;;;;;;;;;;;-0.27;100.00;99630.13;5596220;31;33820;-80
2021/12/29 07:54:00;;;;;;;;;;;;;;;-0.19;100.00;99633.13;5597213;31;33636;-81
2021/12/29 07:57:03;;;;;;;;;;;;;;;-0.16;100.00;99637.28;5597255;31;33557;-82
2021/12/29 08:00:07;;;;;;;;;;;;;;;-0.13;100.00;99637.13;5596734;31;33379;-81
2021/12/29 08:03:14;;;;;;;;;;;;;;;-0.08;100.00;99640.31;5596506;31;33875;-81
2021/12/29 08:06:18;;;;;;;;;;;;;;;-0.10;100.00;99633.50;5596415;31;34186;-82
2021/12/29 08:09:20;;;;;;;;;;;;;;;0.06;100.00;99630.84;5597160;31;34092;-81
2021/12/29 08:12:24;;;;;;;;;;;;;;;0.07;100.00;99627.31;5596930;31;33626;-81
2021/12/29 08:15:26;;;;;;;;;;;;;;;0.14;100.00;99631.25;5595987;31;34373;-81
2021/12/29 08:18:29;;;;;;;;;;;;;;;0.10;100.00;99640.16;5597628;31;33923;-82
2021/12/29 08:21:31;;;;;;;;;;;;;;;0.26;100.00;99635.72;5604511;31;34232;-81
2021/12/29 08:24:34;;;;;;;;;;;;;;;0.25;100.00;99636.66;5598128;31;33486;-81
2021/12/29 08:27:41;;;;;;;;;;;;;;;0.10;100.00;99647.94;5596480;31;33165;-81
2021/12/29 08:30:44;;;;;;;;;;;;;;;0.24;100.00;99650.59;5595386;31;34270;-81
2021/12/29 08:33:50;;;;;;;;;;;;;;;0.21;100.00;99649.94;5595810;31;33815;-81
2021/12/29 08:36:52;;;;;;;;;;;;;;;0.26;100.00;99647.88;5596305;31;33648;-81
2021/12/29 08:39:55;;;;;;;;;;;;;;;0.34;100.00;99645.66;5596240;31;33529;-81
2021/12/29 08:43:01;;;;;;;;;;;;;;;0.46;100.00;99651.91;5596716;31;33453;-81
2021/12/29 08:46:04;;;;;;;;;;;;;;;0.36;100.00;99669.81;5595940;31;33836;-81
2021/12/29 08:49:07;;;;;;;;;;;;;;;0.21;100.00;99666.37;5595439;31;33617;-81
2021/12/29 08:52:12;;;;;;;;;;;;;;;0.35;100.00;99669.91;5595835;31;33126;-81
2021/12/29 08:55:17;;;;;;;;;;;;;;;0.34;100.00;99681.25;5596299;31;34077;-83
2021/12/29 08:58:22;;;;;;;;;;;;;;;0.26;100.00;99679.09;5595913;31;33517;-82
2021/12/29 09:01:25;;;;;;;;;;;;;;;0.26;100.00;99685.16;5595449;31;33595;-82
2021/12/29 09:04:28;;;;;;;;;;;;;;;0.28;100.00;99688.47;5595632;31;33582;-82
2021/12/29 09:07:33;;;;;;;;;;;;;;;0.58;100.00;99689.34;5597037;31;33969;-82
2021/12/29 09:10:36;;;;;;;;;;;;;;;0.86;100.00;99687.69;5596980;31;33541;-83
2021/12/29 09:13:47;;;;;;;;;;;;;;;0.98;100.00;99691.28;5595531;31;33837;-82
2021/12/29 09:16:50;;;;;;;;;;;;;;;1.08;100.00;99684.59;5594530;31;33407;-82
2021/12/29 09:19:53;;;;;;;;;;;;;;;1.33;100.00;99681.28;5595601;31;33853;-83
2021/12/29 09:22:58;;;;;;;;;;;;;;;1.49;100.00;99675.94;5594631;31;34054;-82
2021/12/29 09:26:01;;;;;;;;;;;;;;;1.78;100.00;99670.59;5596922;31;34029;-82
2021/12/29 09:29:04;;;;;;;;;;;;;;;2.02;100.00;99662.09;5595604;31;34079;-82
2021/12/29 09:32:07;;;;;;;;;;;;;;;1.85;100.00;99650.16;5595702;31;33729;-82
2021/12/29 09:35:11;;;;;;;;;;;;;;;2.01;100.00;99649.97;5595636;31;32987;-82
2021/12/29 09:38:18;;;;;;;;;;;;;;;2.12;100.00;99652.69;5595400;31;34055;-82
2021/12/29 09:41:20;;;;;;;;;;;;;;;2.39;100.00;99643.97;5596216;31;33330;-83
2021/12/29 09:44:23;;;;;;;;;;;;;;;2.57;100.00;99643.63;5596537;31;34036;-82
2021/12/29 09:47:27;;;;;;;;;;;;;;;2.95;100.00;99653.19;5595708;31;34547;-83
2021/12/29 09:50:30;;;;;;;;;;;;;;;3.02;100.00;99646.56;5595919;31;34131;-82
2021/12/29 09:53:32;;;;;;;;;;;;;;;3.10;100.00;99638.19;5597961;31;33467;-82
2021/12/29 09:56:40;;;;;;;;;;;;;;;3.18;100.00;99635.84;5597154;31;33200;-82
2021/12/29 09:59:43;;;;;;;;;;;;;;;3.18;100.00;99630.63;5596093;31;34292;-82
2021/12/29 10:02:49;;;;;;;;;;;;;;;3.17;100.00;99620.28;5594618;31;34726;-82
2021/12/29 10:05:53;;;;;;;;;;;;;;;2.90;100.00;99622.16;5594461;31;34045;-81
2021/12/29 10:08:55;;;;;;;;;;;;;;;2.77;100.00;99611.72;5596389;31;33773;-82
2021/12/29 10:12:05;;;;;;;;;;;;;;;2.60;100.00;99617.31;5600990;31;33712;-82
2021/12/29 10:15:08;;;;;;;;;;;;;;;2.49;100.00;99618.03;5600540;31;33799;-82
2021/12/29 10:18:12;;;;;;;;;;;;;;;2.53;100.00;99619.50;5600595;31;33367;-82
2021/12/29 10:21:18;;;;;;;;;;;;;;;2.73;100.00;99619.87;5603038;31;33671;-82
2021/12/29 10:24:22;;;;;;;;;;;;;;;3.14;100.00;99623.12;5601268;31;33470;-82
2021/12/29 10:27:29;;;;;;;;;;;;;;;3.33;100.00;99613.00;5601221;31;33922;-82
2021/12/29 10:30:35;;;;;;;;;;;;;;;3.42;100.00;99615.91;5601451;31;33765;-82
2021/12/29 10:33:39;;;;;;;;;;;;;;;3.31;100.00;99625.38;5600423;31;33996;-82
2021/12/29 10:36:47;;;;;;;;;;;;;;;3.37;100.00;99611.84;5601215;31;34197;-81
2021/12/29 10:39:51;;;;;;;;;;;;;;;3.46;100.00;99619.94;5602394;31;33661;-81
2021/12/29 10:42:58;;;;;;;;;;;;;;;3.59;100.00;99617.28;5600836;31;33914;-82
2021/12/29 10:46:02;;;;;;;;;;;;;;;3.53;100.00;99623.78;5600838;31;33894;-82
2021/12/29 10:49:08;;;;;;;;;;;;;;;3.38;100.00;99625.72;5601930;31;34615;-81
2021/12/29 10:52:10;;;;;;;;;;;;;;;3.35;100.00;99626.78;5601780;31;34620;-82
2021/12/29 10:55:31;;;;;;;;;;;;;;;3.24;100.00;99619.75;5600651;31;33808;-81
2021/12/29 10:58:34;;;;;;;;;;;;;;;3.30;100.00;99622.84;5600700;31;33396;-81
2021/12/29 11:01:38;;;;;;;;;;;;;;;3.39;100.00;99628.25;5600919;31;33742;-81
2021/12/29 11:04:40;;;;;;;;;;;;;;;3.01;100.00;99625.78;5602347;31;33444;-82
2021/12/29 11:07:45;;;;;;;;;;;;;;;2.85;100.00;99618.19;5604536;31;33791;-81
2021/12/29 11:10:48;;;;;;;;;;;;;;;2.60;100.00;99630.34;5604487;31;34413;-82
2021/12/29 11:13:56;;;;;;;;;;;;;;;2.87;100.00;99621.53;5601222;31;34154;-82
2021/12/29 11:17:09;;;;;;;;;;;;;;;2.92;100.00;99622.03;5601949;31;33672;-82
2021/12/29 11:20:21;;;;;;;;;;;;;;;2.55;100.00;99616.78;5599542;31;33842;-82
2021/12/29 11:23:24;;;;;;;;;;;;;;;2.31;100.00;99618.38;5596889;31;33487;-82
2021/12/29 11:26:30;;;;;;;;;;;;;;;2.10;100.00;99623.25;5596670;31;34610;-82
2021/12/29 11:29:32;;;;;;;;;;;;;;;2.27;100.00;99616.06;5596862;31;33614;-82
2021/12/29 11:32:37;;;;;;;;;;;;;;;1.96;100.00;99610.34;5596572;31;33467;-82
2021/12/29 11:35:43;;;;;;;;;;;;;;;2.01;100.00;99618.66;5597804;31;33671;-82
2021/12/29 11:38:46;;;;;;;;;;;;;;;2.02;100.00;99617.72;5597977;31;33860;-83
2021/12/29 11:41:49;;;;;;;;;;;;;;;2.13;100.00;99622.25;5597093;31;33647;-82
2021/12/29 11:44:52;;;;;;;;;;;;;;;2.10;100.00;99625.88;5596195;31;34230;-81
2021/12/29 11:47:54;;;;;;;;;;;;;;;2.09;100.00;99626.81;5585373;31;33836;-81
2021/12/29 11:50:59;;;;;;;;;;;;;;;2.12;100.00;99631.81;5600357;31;34375;-82
2021/12/29 11:54:06;;;;;;;;;;;;;;;2.12;100.00;99631.00;5597918;31;33652;-82
2021/12/29 11:57:10;;;;;;;;;;;;;;;2.01;100.00;99626.50;5596233;31;33283;-81
2021/12/29 12:00:17;;;;;;;;;;;;;;;2.08;100.00;99632.12;5595911;31;34418;-81
2021/12/29 12:03:21;;;;;;;;;;;;;;;2.09;100.00;99628.59;5596410;31;34752;-81
2021/12/29 12:06:32;;;;;;;;;;;;;;;2.02;100.00;99625.56;5597527;31;33707;-82
2021/12/29 12:09:47;;;;;;;;;;;;;;;2.05;100.00;99635.81;5597482;31;33089;-83
2021/12/29 12:12:56;;;;;;;;;;;;;;;2.11;100.00;99630.16;5596641;31;33618;-82
2021/12/29 12:16:05;;;;;;;;;;;;;;;2.13;100.00;99643.94;5597657;31;33582;-82
2021/12/29 12:19:17;;;;;;;;;;;;;;;2.12;100.00;99647.50;5598542;31;33803;-83
2021/12/29 12:22:20;;;;;;;;;;;;;;;2.12;100.00;99642.25;5595847;31;33645;-83
2021/12/29 12:25:28;;;;;;;;;;;;;;;2.12;100.00;99642.25;5596383;31;36096;-82
2021/12/29 12:28:41;;;;;;;;;;;;;;;2.13;100.00;99633.50;5596902;31;33446;-83
2021/12/29 12:32:05;;;;;;;;;;;;;;;2.20;100.00;99635.69;5595722;31;33263;-82
2021/12/29 12:35:08;;;;;;;;;;;;;;;2.29;100.00;99643.75;5596061;31;33551;-82
2021/12/29 12:38:22;;;;;;;;;;;;;;;2.26;100.00;99653.56;5595108;31;33288;-82
2021/12/29 12:41:36;;;;;;;;;;;;;;;2.23;100.00;99645.94;5596516;31;33874;-83
2021/12/29 12:44:41;;;;;;;;;;;;;;;2.19;100.00;99647.09;5595549;31;34512;-82
2021/12/29 12:47:45;;;;;;;;;;;;;;;2.16;100.00;99658.56;5595466;31;33684;-82
2021/12/29 12:50:47;;;;;;;;;;;;;;;2.11;100.00;99658.03;5595406;31;34330;-82
2021/12/29 12:53:50;;;;;;;;;;;;;;;2.09;100.00;99654.69;5595324;31;33988;-82
2021/12/29 12:56:53;;;;;;;;;;;;;;;2.35;100.00;99654.72;5596700;31;34574;-82
2021/12/29 13:00:08;;;;;;;;;;;;;;;2.35;100.00;99652.94;5595497;31;33818;-82
2021/12/29 13:03:13;;;;;;;;;;;;;;;2.54;100.00;99651.66;5595391;31;32428;-82
2021/12/29 13:06:20;;;;;;;;;;;;;;;2.55;100.00;99669.00;5596005;31;33730;-83
2021/12/29 13:09:22;;;;;;;;;;;;;;;2.57;100.00;99667.13;5596621;31;34148;-83
2021/12/29 13:12:29;;;;;;;;;;;;;;;2.60;100.00;99672.16;5596943;31;33535;-83
2021/12/29 13:15:32;;;;;;;;;;;;;;;2.57;100.00;99673.19;5595670;31;33999;-82
2021/12/29 13:18:37;;;;;;;;;;;;;;;2.43;100.00;99681.13;5594795;31;33267;-82
2021/12/29 13:21:41;;;;;;;;;;;;;;;2.36;100.00;99680.72;5596208;31;34225;-82
2021/12/29 13:24:44;;;;;;;;;;;;;;;2.41;100.00;99683.84;5595969;31;34046;-82
2021/12/29 13:28:00;;;;;;;;;;;;;;;2.29;100.00;99687.28;5594592;31;33657;-82
2021/12/29 13:31:14;;;;;;;;;;;;;;;2.47;100.00;99691.25;5595524;31;33851;-82
2021/12/29 13:34:17;;;;;;;;;;;;;;;2.30;100.00;99692.41;5597011;31;33503;-82
2021/12/29 13:37:20;;;;;;;;;;;;;;;2.10;100.00;99692.91;5598763;31;33879;-82
2021/12/29 13:40:27;;;;;;;;;;;;;;;2.25;100.00;99709.31;5605182;31;33534;-82
2021/12/29 13:43:32;;;;;;;;;;;;;;;2.36;100.00;99704.19;5597283;31;33456;-82
2021/12/29 13:46:36;;;;;;;;;;;;;;;2.50;100.00;99707.66;5595031;31;33936;-82
2021/12/29 13:49:39;;;;;;;;;;;;;;;2.55;100.00;99716.84;5596133;31;34013;-82
2021/12/29 13:52:41;;;;;;;;;;;;;;;2.53;100.00;99720.53;5594453;31;33514;-82
2021/12/29 13:55:44;;;;;;;;;;;;;;;2.45;100.00;99715.81;5595793;31;34064;-82
2021/12/29 13:58:57;;;;;;;;;;;;;;;2.43;100.00;99721.13;5596062;31;34197;-84
2021/12/29 14:02:02;;;;;;;;;;;;;;;2.40;100.00;99734.41;5603359;31;33544;-83
2021/12/29 14:05:07;;;;;;;;;;;;;;;2.35;100.00;99730.44;5596564;31;33898;-83
2021/12/29 14:08:11;;;;;;;;;;;;;;;2.28;100.00;99730.81;5598745;31;33730;-82
2021/12/29 14:11:23;;;;;;;;;;;;;;;2.36;100.00;99738.12;5596721;31;34173;-82
2021/12/29 14:14:26;;;;;;;;;;;;;;;2.32;100.00;99739.28;5595854;31;34194;-82
2021/12/29 14:17:36;;;;;;;;;;;;;;;2.22;100.00;99746.03;5595001;31;34152;-81
2021/12/29 14:20:38;;;;;;;;;;;;;;;2.07;100.00;99740.06;5594447;31;33606;-80
2021/12/29 14:23:43;;;;;;;;;;;;;;;2.09;100.00;99736.41;5595570;31;33693;-80
2021/12/29 14:26:50;;;;;;;;;;;;;;;2.11;100.00;99750.19;5595377;31;33669;-82
2021/12/29 14:29:55;;;;;;;;;;;;;;;2.16;100.00;99748.13;5594496;31;33791;-82
2021/12/29 14:32:59;;;;;;;;;;;;;;;2.06;100.00;99756.66;5595471;31;34330;-83
2021/12/29 14:36:02;;;;;;;;;;;;;;;2.09;100.00;99762.50;5595470;31;33730;-83
2021/12/29 14:39:07;;;;;;;;;;;;;;;2.10;100.00;99761.56;5595462;31;33701;-83
2021/12/29 14:42:11;;;;;;;;;;;;;;;2.01;100.00;99770.00;5594062;31;33936;-84
2021/12/29 14:45:13;;;;;;;;;;;;;;;2.03;100.00;99773.34;5594295;31;34584;-83
2021/12/29 14:48:19;;;;;;;;;;;;;;;2.03;100.00;99773.34;5594336;31;33481;-82
2021/12/29 14:51:27;;;;;;;;;;;;;;;2.09;100.00;99778.16;5594069;31;33290;-82
2021/12/29 14:54:34;;;;;;;;;;;;;;;2.10;100.00;99779.84;5596774;31;33809;-83
2021/12/29 14:57:38;;;;;;;;;;;;;;;2.18;100.00;99776.72;5598366;31;33579;-84
2021/12/29 15:00:41;;;;;;;;;;;;;;;2.13;100.00;99778.81;5597065;31;34580;-83
2021/12/29 15:03:50;;;;;;;;;;;;;;;2.08;100.00;99781.72;5596208;31;33870;-83
2021/12/29 15:06:53;;;;;;;;;;;;;;;2.10;100.00;99785.06;5595909;31;33558;-84
2021/12/29 15:09:56;;;;;;;;;;;;;;;2.02;100.00;99803.00;5596395;31;34172;-83
2021/12/29 15:13:01;;;;;;;;;;;;;;;2.00;100.00;99802.25;5599320;31;33652;-84
2021/12/29 15:16:20;;;;;;;;;;;;;;;2.07;100.00;99811.37;5596608;31;33887;-83
2021/12/29 15:19:27;;;;;;;;;;;;;;;2.05;100.00;99818.47;5597878;31;33632;-82
2021/12/29 15:22:29;;;;;;;;;;;;;;;2.04;100.00;99811.56;5597807;31;33731;-82
2021/12/29 15:25:32;;;;;;;;;;;;;;;2.07;100.00;99805.31;5597947;31;33654;-82
2021/12/29 15:28:35;;;;;;;;;;;;;;;2.10;100.00;99805.09;5597766;31;33807;-82
2021/12/29 15:31:38;;;;;;;;;;;;;;;2.06;100.00;99809.69;5595285;31;34564;-82
2021/12/29 15:34:41;;;;;;;;;;;;;;;2.01;100.00;99816.97;5596142;31;33753;-82
2021/12/29 15:37:45;;;;;;;;;;;;;;;2.03;100.00;99822.94;5597229;31;34155;-84
2021/12/29 15:40:48;;;;;;;;;;;;;;;1.95;100.00;99828.63;5595409;31;34060;-83
2021/12/29 15:43:54;;;;;;;;;;;;;;;1.98;100.00;99823.22;5595868;31;34680;-83
2021/12/29 15:46:57;;;;;;;;;;;;;;;1.97;100.00;99831.97;5597348;31;33673;-82
2021/12/29 15:49:59;;;;;;;;;;;;;;;1.92;100.00;99831.44;5595883;31;34553;-81
2021/12/29 15:53:02;;;;;;;;;;;;;;;1.84;100.00;99829.31;5603376;31;33564;-82
2021/12/29 15:56:05;;;;;;;;;;;;;;;1.75;100.00;99834.28;5596142;31;33976;-84
2021/12/29 15:59:07;;;;;;;;;;;;;;;1.80;100.00;99843.50;5596006;31;33757;-83
2021/12/29 16:02:13;;;;;;;;;;;;;;;1.84;100.00;99847.59;5596559;31;33890;-83